Time;durP1;ratioP1;P1;durP2;ratioP2;P2;SDS_P1;SDS_P2;PMS_P1;PMS_P2;Temp;Humidity;BMP_temperature;BMP_pressure;BME280_temperature;BME280_humidity;BME280_pressure;Samples;Min_cycle;Max_cycle;Signal;HPM_P1;HPM_P2
2022/01/28 00:01:41;;;;;;;1999.90;999.90;;;;;;;-0.93;62.53;101352.00;4943190;28;99933;-69
2022/01/28 00:04:14;;;;;;;1999.90;999.90;;;;;;;-0.89;62.21;101366.22;4958883;28;97644;-72
2022/01/28 00:06:42;;;;;;;1999.90;999.90;;;;;;;-0.91;61.90;101349.50;4959754;28;97306;-69
2022/01/28 00:09:10;;;;;;;1999.90;999.90;;;;;;;-0.90;61.64;101360.06;4960790;28;97729;-71
2022/01/28 00:11:38;;;;;;;1999.90;999.90;;;;;;;-0.88;61.80;101373.25;4959462;28;98006;-71
2022/01/28 00:14:16;;;;;;;1999.90;999.90;;;;;;;-0.85;61.70;101365.66;4962709;28;97643;-71
2022/01/28 00:17:27;;;;;;;1999.90;999.90;;;;;;;-0.86;61.72;101361.22;4955058;28;96874;-70
2022/01/28 00:20:38;;;;;;;1999.90;999.90;;;;;;;-0.90;61.35;101380.97;4960400;28;100660;-71
2022/01/28 00:36:59;;;;;;;1999.90;999.90;;;;;;;-0.83;61.38;101385.84;4959576;28;96778;-72
2022/01/28 00:39:27;;;;;;;1999.90;999.90;;;;;;;-0.81;61.81;101388.59;4960679;28;97370;-71
2022/01/28 00:41:54;;;;;;;1999.90;999.90;;;;;;;-0.84;61.59;101390.97;4962184;28;97652;-71
2022/01/28 00:44:22;;;;;;;1999.90;999.90;;;;;;;-0.81;61.25;101393.81;4942619;28;99997;-71
2022/01/28 00:46:50;;;;;;;1999.90;999.90;;;;;;;-0.81;61.41;101396.41;4957578;28;96917;-71
2022/01/28 00:49:18;;;;;;;1999.90;999.90;;;;;;;-0.84;61.29;101397.13;4958774;28;97482;-71
2022/01/28 00:51:47;;;;;;;1999.90;999.90;;;;;;;-0.80;61.34;101408.72;4958229;28;100579;-72
2022/01/28 00:54:17;;;;;;;1999.90;999.90;;;;;;;-0.77;61.63;101393.25;4958062;28;97518;-71
2022/01/28 00:56:45;;;;;;;1999.90;999.90;;;;;;;-0.77;61.72;101414.16;4958140;28;98195;-71
2022/01/28 00:59:13;;;;;;;1999.90;999.90;;;;;;;-0.76;61.49;101405.53;4961728;28;98545;-71
2022/01/28 01:01:41;;;;;;;1999.90;999.90;;;;;;;-0.78;61.26;101418.47;4967735;28;98820;-71
2022/01/28 01:04:09;;;;;;;1999.90;999.90;;;;;;;-0.78;61.13;101418.47;4969269;28;99713;-72
2022/01/28 01:06:37;;;;;;;1999.90;999.90;;;;;;;-0.76;61.39;101396.78;4965066;28;96689;-72
2022/01/28 01:09:06;;;;;;;1999.90;999.90;;;;;;;-0.79;61.01;101400.06;4965577;28;98442;-72
2022/01/28 01:11:34;;;;;;;1999.90;999.90;;;;;;;-0.79;61.00;101420.09;4962735;28;99689;-68
2022/01/28 01:14:01;;;;;;;1999.90;999.90;;;;;;;-0.83;61.25;101424.16;4963707;28;98178;-72
2022/01/28 01:16:35;;;;;;;1999.90;999.90;;;;;;;-0.83;61.02;101424.16;4960368;28;100567;-72
2022/01/28 01:19:16;;;;;;;1999.90;999.90;;;;;;;-0.85;61.21;101446.66;4958519;28;96942;-70
2022/01/28 01:21:44;;;;;;;1999.90;999.90;;;;;;;-0.85;61.00;101436.19;4964408;28;99285;-73
2022/01/28 01:24:21;;;;;;;1999.90;999.90;;;;;;;-0.86;61.38;101458.78;4965482;28;98999;-71
2022/01/28 01:26:49;;;;;;;1999.90;999.90;;;;;;;-0.88;60.66;101443.78;4964522;28;96921;-72
2022/01/28 01:29:19;;;;;;;1999.90;999.90;;;;;;;-0.89;60.89;101445.50;4943708;28;97061;-71
2022/01/28 01:31:48;;;;;;;1999.90;999.90;;;;;;;-0.85;60.99;101457.09;4961129;28;100974;-72
2022/01/28 01:34:17;;;;;;;1999.90;999.90;;;;;;;-0.87;60.96;101443.88;4958684;28;100112;-72
2022/01/28 01:36:45;;;;;;;1999.90;999.90;;;;;;;-0.81;61.37;101459.13;4960275;28;97827;-72
2022/01/28 01:39:20;;;;;;;1999.90;999.90;;;;;;;-0.83;61.41;101469.47;4961645;28;98629;-72
2022/01/28 01:41:54;;;;;;;1999.90;999.90;;;;;;;-0.80;61.20;101455.75;4959522;28;99686;-72
2022/01/28 01:44:30;;;;;;;1999.90;999.90;;;;;;;-0.83;61.48;101459.00;4960671;28;99789;-71
2022/01/28 01:52:41;;;;;;;1999.90;999.90;;;;;;;-0.89;61.04;101447.19;4959676;28;100482;-71
2022/01/28 01:55:11;;;;;;;1999.90;999.90;;;;;;;-0.87;61.37;101470.00;4957171;28;99304;-71
2022/01/28 01:57:38;;;;;;;1999.90;999.90;;;;;;;-0.90;60.98;101458.41;4961007;28;98280;-71
2022/01/28 02:00:08;;;;;;;1999.90;999.90;;;;;;;-0.89;60.81;101475.94;4941247;28;96988;-70
2022/01/28 02:02:47;;;;;;;1999.90;999.90;;;;;;;-0.89;61.19;101483.78;4959539;28;99881;-72
2022/01/28 02:05:15;;;;;;;1999.90;999.90;;;;;;;-0.89;60.87;101482.06;4965164;28;97673;-72
2022/01/28 02:07:45;;;;;;;1999.90;999.90;;;;;;;-0.89;61.04;101479.47;4947890;28;98576;-72
2022/01/28 02:10:15;;;;;;;1999.90;999.90;;;;;;;-0.89;61.00;101497.75;4964840;28;97231;-72
2022/01/28 02:12:47;;;;;;;1999.90;999.90;;;;;;;-0.91;61.33;101501.03;4962352;28;101476;-71
2022/01/28 02:15:16;;;;;;;1999.90;999.90;;;;;;;-0.92;61.15;101507.94;4960480;28;98309;-71
2022/01/28 02:17:44;;;;;;;1999.90;999.90;;;;;;;-0.95;61.23;101491.13;4950949;28;98637;-71
2022/01/28 02:20:22;;;;;;;1999.90;999.90;;;;;;;-0.97;61.38;101492.69;4967662;28;97016;-72
2022/01/28 02:22:50;;;;;;;1999.90;999.90;;;;;;;-0.97;61.33;101509.28;4966485;28;99549;-71
2022/01/28 02:25:22;;;;;;;1999.90;999.90;;;;;;;-1.13;60.46;101515.78;4964477;28;97614;-71
2022/01/28 02:27:50;;;;;;;1999.90;999.90;;;;;;;-1.05;61.43;101499.94;4957593;28;96924;-71
2022/01/28 02:30:18;;;;;;;1999.90;999.90;;;;;;;-1.07;61.70;101501.50;4962903;28;98557;-71
2022/01/28 02:32:48;;;;;;;1999.90;999.90;;;;;;;-1.10;61.41;101508.19;4962712;28;99232;-70
2022/01/28 02:35:16;;;;;;;1999.90;999.90;;;;;;;-1.10;61.79;101508.19;4963150;28;97590;-71
2022/01/28 02:37:45;;;;;;;1999.90;999.90;;;;;;;-1.13;61.35;101535.00;4962671;28;98311;-72
2022/01/28 02:40:13;;;;;;;1999.90;999.90;;;;;;;-1.13;61.71;101514.09;4960968;28;98903;-71
2022/01/28 02:42:52;;;;;;;1999.90;999.90;;;;;;;-1.17;61.62;101521.56;4962763;28;98044;-70
2022/01/28 02:45:27;;;;;;;1999.90;999.90;;;;;;;-1.18;61.45;101517.13;4963390;28;99717;-71
2022/01/28 02:47:59;;;;;;;1999.90;999.90;;;;;;;-1.15;61.66;101527.81;4962426;28;97803;-71
2022/01/28 02:50:30;;;;;;;1999.90;999.90;;;;;;;-1.22;60.71;101538.56;4959585;28;97279;-71
2022/01/28 02:53:06;;;;;;;1999.90;999.90;;;;;;;-1.22;60.79;101543.78;4959839;28;98912;-71
2022/01/28 02:55:38;;;;;;;1999.90;999.90;;;;;;;-1.24;60.00;101521.84;4980145;28;98507;-71
2022/01/28 02:58:18;;;;;;;1999.90;999.90;;;;;;;-1.20;60.93;101534.38;4962129;28;97576;-71
2022/01/28 03:00:47;;;;;;;1999.90;999.90;;;;;;;-1.13;60.89;101562.78;4962911;28;98776;-71
2022/01/28 03:03:18;;;;;;;1999.90;999.90;;;;;;;-1.10;61.43;101557.81;4962156;28;99897;-72
2022/01/28 03:05:46;;;;;;;1999.90;999.90;;;;;;;-1.08;61.13;101546.72;4960170;28;98964;-71
2022/01/28 03:08:16;;;;;;;1999.90;999.90;;;;;;;-1.12;61.04;101539.41;4960039;28;96954;-71
2022/01/28 03:10:56;;;;;;;1999.90;999.90;;;;;;;-1.08;61.15;101545.78;4959712;28;97526;-70
2022/01/28 03:13:34;;;;;;;1999.90;999.90;;;;;;;-1.07;61.50;101558.97;4958382;28;98387;-70
2022/01/28 03:16:11;;;;;;;1999.90;999.90;;;;;;;-1.11;60.80;101549.09;4963117;28;97609;-70
2022/01/28 03:21:38;;;;;;;1999.90;999.90;;;;;;;-1.19;60.96;101565.81;4962931;28;96841;-71
2022/01/28 03:24:09;;;;;;;1999.90;999.90;;;;;;;-1.19;60.88;101567.50;4961420;28;98881;-71
2022/01/28 03:26:37;;;;;;;1999.90;999.90;;;;;;;-1.15;61.21;101566.97;4944274;28;100577;-71
2022/01/28 03:29:06;;;;;;;1999.90;999.90;;;;;;;-1.16;61.01;101568.66;4962360;28;97190;-72
2022/01/28 03:31:38;;;;;;;1999.90;999.90;;;;;;;-1.16;60.65;101573.91;4958478;28;98125;-72
2022/01/28 03:34:06;;;;;;;1999.90;999.90;;;;;;;-1.18;61.21;101590.25;4963429;28;98049;-71
2022/01/28 03:36:34;;;;;;;1999.90;999.90;;;;;;;-1.16;61.19;101618.28;4962301;28;98047;-71
2022/01/28 03:39:02;;;;;;;1999.90;999.90;;;;;;;-1.16;61.10;101601.72;4962157;28;98162;-71
2022/01/28 03:41:31;;;;;;;1999.90;999.90;;;;;;;-1.17;61.30;101592.97;4958134;28;97293;-71
2022/01/28 03:44:00;;;;;;;1999.90;999.90;;;;;;;-1.21;61.27;101609.19;4959952;28;101358;-71
2022/01/28 03:46:29;;;;;;;1999.90;999.90;;;;;;;-1.19;61.62;101630.19;4960500;28;99232;-71
2022/01/28 03:48:57;;;;;;;1999.90;999.90;;;;;;;-1.24;61.85;101623.69;4962381;28;97193;-71
2022/01/28 03:51:26;;;;;;;1999.90;999.90;;;;;;;-1.27;61.29;101634.78;4961876;28;96915;-71
2022/01/28 03:53:54;;;;;;;1999.90;999.90;;;;;;;-1.30;62.02;101617.94;4961538;28;98038;-71
2022/01/28 03:56:21;;;;;;;1999.90;999.90;;;;;;;-1.37;62.70;101632.22;4960632;28;99331;-71
2022/01/28 03:58:50;;;;;;;1999.90;999.90;;;;;;;-1.36;62.48;101626.19;4975494;28;98347;-71
2022/01/28 04:01:23;;;;;;;1999.90;999.90;;;;;;;-1.44;62.63;101637.72;4975623;28;98579;-71
2022/01/28 04:04:18;;;;;;;1999.90;999.90;;;;;;;-1.45;62.78;101646.31;4961779;28;99505;-70
2022/01/28 04:12:20;;;;;;;1999.90;999.90;;;;;;;-1.47;62.11;101631.34;4961165;28;99005;-71
2022/01/28 04:15:04;;;;;;;1999.90;999.90;;;;;;;-1.51;62.45;101629.25;4960058;28;100752;-71
2022/01/28 04:17:32;;;;;;;1999.90;999.90;;;;;;;-1.51;62.57;101652.75;4962868;28;98123;-71
2022/01/28 04:20:00;;;;;;;1999.90;999.90;;;;;;;-1.54;62.83;101655.13;4960226;28;97679;-70
2022/01/28 04:22:27;;;;;;;1999.90;999.90;;;;;;;-1.54;62.52;101644.69;4962487;28;97043;-71
2022/01/28 04:24:55;;;;;;;1999.90;999.90;;;;;;;-1.56;62.61;101651.47;4958593;28;97819;-71
2022/01/28 04:27:23;;;;;;;1999.90;999.90;;;;;;;-1.62;62.88;101661.38;4960973;28;100437;-71
2022/01/28 04:29:52;;;;;;;1999.90;999.90;;;;;;;-1.63;62.35;101656.97;4961106;28;96974;-71
2022/01/28 04:32:21;;;;;;;1999.90;999.90;;;;;;;-1.63;62.69;101656.97;4966712;28;96893;-72
2022/01/28 04:34:48;;;;;;;1999.90;999.90;;;;;;;-1.70;62.85;101670.25;4967992;28;99099;-72
2022/01/28 04:37:25;;;;;;;1999.90;999.90;;;;;;;-1.69;62.82;101679.91;4967337;28;99313;-71
2022/01/28 04:39:58;;;;;;;1999.90;999.90;;;;;;;-1.67;62.16;101673.13;4968862;28;96871;-71
2022/01/28 04:45:18;;;;;;;1999.90;999.90;;;;;;;-1.66;61.98;101685.38;4953297;28;99555;-71
2022/01/28 04:47:57;;;;;;;1999.90;999.90;;;;;;;-1.71;62.36;101689.31;4961478;28;97562;-71
2022/01/28 04:50:33;;;;;;;1999.90;999.90;;;;;;;-1.67;61.83;101678.34;4941860;28;97379;-71
2022/01/28 04:53:33;;;;;;;1999.90;999.90;;;;;;;-1.66;62.12;101690.59;4960063;28;97147;-72
2022/01/28 04:58:57;;;;;;;1999.90;999.90;;;;;;;-1.60;61.58;101685.91;4941497;28;99371;-71
2022/01/28 05:04:37;;;;;;;1999.90;999.90;;;;;;;-1.62;61.90;101697.91;4932910;28;97305;-71
2022/01/28 05:07:31;;;;;;;1999.90;999.90;;;;;;;-1.59;61.35;101708.59;4952023;28;98851;-71
2022/01/28 05:16:10;;;;;;;1999.90;999.90;;;;;;;-1.60;61.62;101736.41;4959860;28;96933;-71
2022/01/28 05:24:35;;;;;;;1999.90;999.90;;;;;;;-1.56;61.19;101761.94;4958910;28;97010;-71
2022/01/28 05:27:06;;;;;;;1999.90;999.90;;;;;;;-1.53;61.71;101758.69;4960887;28;98765;-71
2022/01/28 05:29:49;;;;;;;1999.90;999.90;;;;;;;-1.49;61.81;101772.16;4961410;28;98055;-70
2022/01/28 05:32:32;;;;;;;1999.90;999.90;;;;;;;-1.53;60.79;101769.13;4960341;28;98561;-71
2022/01/28 05:35:16;;;;;;;1999.90;999.90;;;;;;;-1.51;60.73;101783.25;4959801;28;97402;-71
2022/01/28 05:37:58;;;;;;;1999.90;999.90;;;;;;;-1.46;61.02;101782.84;4958914;28;98681;-71
2022/01/28 05:40:26;;;;;;;1999.90;999.90;;;;;;;-1.48;60.83;101780.88;4961977;28;101409;-71
2022/01/28 05:42:54;;;;;;;1999.90;999.90;;;;;;;-1.48;60.22;101791.31;4962873;28;99316;-70
2022/01/28 05:45:21;;;;;;;1999.90;999.90;;;;;;;-1.45;60.91;101779.44;4960794;28;97553;-71
2022/01/28 05:47:49;;;;;;;1999.90;999.90;;;;;;;-1.41;61.63;101793.66;4962040;28;97985;-72
2022/01/28 05:50:18;;;;;;;1999.90;999.90;;;;;;;-1.45;60.90;101791.59;4960270;28;97565;-73
2022/01/28 05:52:46;;;;;;;1999.90;999.90;;;;;;;-1.39;61.00;101810.38;4943223;28;99122;-72
2022/01/28 05:55:14;;;;;;;1999.90;999.90;;;;;;;-1.40;60.98;101803.34;4981961;28;97189;-72
2022/01/28 05:57:42;;;;;;;1999.90;999.90;;;;;;;-1.38;61.60;101809.59;4965682;28;98289;-71
2022/01/28 06:00:11;;;;;;;1999.90;999.90;;;;;;;-1.34;61.37;101811.69;4948566;28;99660;-70
2022/01/28 06:02:43;;;;;;;1999.90;999.90;;;;;;;-1.36;60.95;101819.38;4968030;28;98769;-71
2022/01/28 06:05:11;;;;;;;1999.90;999.90;;;;;;;-1.44;60.86;101837.78;4959081;28;97655;-71
2022/01/28 06:07:42;;;;;;;1999.90;999.90;;;;;;;-1.47;60.30;101854.09;4961431;28;98621;-71
2022/01/28 06:10:11;;;;;;;1999.90;999.90;;;;;;;-1.46;61.29;101829.84;4965279;28;97803;-71
2022/01/28 06:12:42;;;;;;;1999.90;999.90;;;;;;;-1.47;61.48;101845.38;4961921;28;99433;-72
2022/01/28 06:15:10;;;;;;;1999.90;999.90;;;;;;;-1.46;60.95;101839.34;4963392;28;98050;-72
2022/01/28 06:17:39;;;;;;;1999.90;999.90;;;;;;;-1.49;61.45;101888.69;4969516;28;97669;-72
2022/01/28 06:20:08;;;;;;;1999.90;999.90;;;;;;;-1.53;61.77;101852.66;4967975;28;100451;-72
2022/01/28 06:22:39;;;;;;;1999.90;999.90;;;;;;;-1.58;61.46;101878.38;4969380;28;97923;-71
2022/01/28 06:25:09;;;;;;;1999.90;999.90;;;;;;;-1.56;61.30;101888.94;4965745;28;97209;-72
2022/01/28 06:27:38;;;;;;;1999.90;999.90;;;;;;;-1.60;61.13;101889.44;4964262;28;97769;-72
2022/01/28 06:30:07;;;;;;;1999.90;999.90;;;;;;;-1.63;61.85;101912.69;4948190;28;97889;-71
2022/01/28 06:32:35;;;;;;;1999.90;999.90;;;;;;;-1.65;61.14;101901.19;4968114;28;97674;-71
2022/01/28 06:35:07;;;;;;;1999.90;999.90;;;;;;;-1.63;61.91;101910.06;4948244;28;97777;-71
2022/01/28 06:37:37;;;;;;;1999.90;999.90;;;;;;;-1.64;61.71;101913.44;4967077;28;97097;-72
2022/01/28 06:40:06;;;;;;;1999.90;999.90;;;;;;;-1.63;61.60;101910.97;4966213;28;98298;-72
2022/01/28 06:42:35;;;;;;;1999.90;999.90;;;;;;;-1.63;61.83;101918.78;4962550;28;99329;-72
2022/01/28 06:45:04;;;;;;;1999.90;999.90;;;;;;;-1.62;61.70;101924.94;4948965;28;96892;-73
2022/01/28 06:47:31;;;;;;;1999.90;999.90;;;;;;;-1.64;61.70;101910.84;4962624;28;96813;-70
2022/01/28 06:50:00;;;;;;;1999.90;999.90;;;;;;;-1.65;61.60;101927.28;4963987;28;97617;-72
2022/01/28 06:52:28;;;;;;;1999.90;999.90;;;;;;;-1.68;61.73;101929.59;4961349;28;100409;-73
2022/01/28 06:54:55;;;;;;;1999.90;999.90;;;;;;;-1.71;61.79;101929.34;4960807;28;99233;-73
2022/01/28 06:57:23;;;;;;;1999.90;999.90;;;;;;;-1.71;61.43;101934.56;4962190;28;96923;-72
2022/01/28 06:59:52;;;;;;;1999.90;999.90;;;;;;;-1.70;61.53;101941.59;4962679;28;101090;-73
2022/01/28 07:02:20;;;;;;;1999.90;999.90;;;;;;;-1.71;61.74;101945.00;4961236;28;97925;-72
2022/01/28 07:04:48;;;;;;;1999.90;999.90;;;;;;;-1.71;62.07;101945.00;4964825;28;97855;-71
2022/01/28 07:07:16;;;;;;;1999.90;999.90;;;;;;;-1.72;61.40;101958.84;4967112;28;98116;-72
2022/01/28 07:09:47;;;;;;;1999.90;999.90;;;;;;;-1.74;61.37;101958.66;4965056;28;97510;-72
2022/01/28 07:12:16;;;;;;;1999.90;999.90;;;;;;;-1.73;61.44;101955.31;4963397;28;99314;-72
2022/01/28 07:14:44;;;;;;;1999.90;999.90;;;;;;;-1.75;61.56;101950.72;4964563;28;97421;-72
2022/01/28 07:17:13;;;;;;;1999.90;999.90;;;;;;;-1.75;61.18;101958.53;4968852;28;97489;-72
2022/01/28 07:19:41;;;;;;;1999.90;999.90;;;;;;;-1.75;61.52;101955.94;4960067;28;100193;-72
2022/01/28 07:22:09;;;;;;;1999.90;999.90;;;;;;;-1.79;61.78;101961.66;4961390;28;98108;-70
2022/01/28 07:24:37;;;;;;;1999.90;999.90;;;;;;;-1.77;61.73;101983.56;4961993;28;97408;-73
2022/01/28 07:27:06;;;;;;;1999.90;999.90;;;;;;;-1.82;61.23;101975.34;4959406;28;97350;-72
2022/01/28 07:29:36;;;;;;;1999.90;999.90;;;;;;;-1.79;61.42;101985.13;4944656;28;100005;-72
2022/01/28 07:32:05;;;;;;;1999.90;999.90;;;;;;;-1.80;61.56;101984.25;4945511;28;100050;-73
2022/01/28 07:34:34;;;;;;;1999.90;999.90;;;;;;;-1.75;61.25;101992.47;4959887;28;98045;-72
2022/01/28 07:37:02;;;;;;;1999.90;999.90;;;;;;;-1.76;61.54;101998.47;4963734;28;96857;-72
2022/01/28 07:39:30;;;;;;;1999.90;999.90;;;;;;;-1.73;61.33;102004.88;4971777;28;101273;-71
2022/01/28 07:41:58;;;;;;;1999.90;999.90;;;;;;;-1.75;61.31;102005.50;4962494;28;97951;-72
2022/01/28 07:44:26;;;;;;;1999.90;999.90;;;;;;;-1.71;61.55;102018.06;4962483;28;97100;-72
2022/01/28 07:46:54;;;;;;;1999.90;999.90;;;;;;;-1.71;61.34;102020.66;4947797;28;97282;-73
2022/01/28 07:49:22;;;;;;;1999.90;999.90;;;;;;;-1.73;61.34;102011.78;4970436;28;100447;-76
2022/01/28 07:51:51;;;;;;;1999.90;999.90;;;;;;;-1.69;61.50;102027.88;4974865;28;98197;-74
2022/01/28 07:54:19;;;;;;;1999.90;999.90;;;;;;;-1.68;60.98;102033.97;4973859;28;97773;-72
2022/01/28 07:56:51;;;;;;;1999.90;999.90;;;;;;;-1.74;60.46;102046.50;4954905;28;97207;-73
2022/01/28 07:59:19;;;;;;;1999.90;999.90;;;;;;;-1.66;61.07;102041.16;4952840;28;99163;-80
2022/01/28 08:01:47;;;;;;;1999.90;999.90;;;;;;;-1.65;61.07;102048.22;4966151;28;98962;-73
2022/01/28 08:04:15;;;;;;;1999.90;999.90;;;;;;;-1.71;60.94;102060.72;4965582;28;96835;-72
2022/01/28 08:06:43;;;;;;;1999.90;999.90;;;;;;;-1.65;61.07;102060.38;4962060;28;97822;-72
2022/01/28 08:09:12;;;;;;;1999.90;999.90;;;;;;;-1.63;61.47;102072.75;4961151;28;98823;-72
2022/01/28 08:11:40;;;;;;;1999.90;999.90;;;;;;;-1.61;61.36;102067.66;4961503;28;98070;-73
2022/01/28 08:14:08;;;;;;;1999.90;999.90;;;;;;;-1.64;61.74;102070.00;4963999;28;96999;-73
2022/01/28 08:16:35;;;;;;;1999.90;999.90;;;;;;;-1.63;61.61;102083.19;4962951;28;97993;-73
2022/01/28 08:19:03;;;;;;;1999.90;999.90;;;;;;;-1.61;61.80;102080.72;4958744;28;98628;-72
2022/01/28 08:21:31;;;;;;;1999.90;999.90;;;;;;;-1.59;61.37;102087.00;4961834;28;99157;-73
2022/01/28 08:23:59;;;;;;;1999.90;999.90;;;;;;;-1.59;61.27;102084.38;4959631;28;96877;-72
2022/01/28 08:26:28;;;;;;;1999.90;999.90;;;;;;;-1.57;61.64;102088.03;4943002;28;98668;-72
2022/01/28 08:28:56;;;;;;;1999.90;999.90;;;;;;;-1.52;61.52;102092.91;4958824;28;99231;-71
2022/01/28 08:31:24;;;;;;;1999.90;999.90;;;;;;;-1.54;61.06;102089.22;4962297;28;99205;-72
2022/01/28 08:33:52;;;;;;;1999.90;999.90;;;;;;;-1.52;61.42;102107.66;4962611;28;97378;-71
2022/01/28 08:36:20;;;;;;;1999.90;999.90;;;;;;;-1.48;61.02;102109.75;4961219;28;97755;-72
2022/01/28 08:38:50;;;;;;;1999.90;999.90;;;;;;;-1.47;61.54;102122.03;4973677;28;98639;-71
2022/01/28 08:41:17;;;;;;;1999.90;999.90;;;;;;;-1.47;60.94;102130.78;4958978;28;99096;-71
2022/01/28 08:43:47;;;;;;;1999.90;999.90;;;;;;;-1.46;61.00;102123.88;4962213;28;98940;-72
2022/01/28 08:46:15;;;;;;;1999.90;999.90;;;;;;;-1.46;60.86;102140.44;4961317;28;97060;-72
2022/01/28 08:48:43;;;;;;;1999.90;999.90;;;;;;;-1.44;61.06;102137.97;4959547;28;100004;-75
2022/01/28 08:51:11;;;;;;;1999.90;999.90;;;;;;;-1.46;60.62;102149.97;4958744;28;97700;-72
2022/01/28 08:53:39;;;;;;;1999.90;999.90;;;;;;;-1.46;60.21;102149.97;4958933;28;97905;-72
2022/01/28 08:56:07;;;;;;;1999.90;999.90;;;;;;;-1.43;60.82;102152.88;4951716;28;97556;-71
2022/01/28 08:58:36;;;;;;;1999.90;999.90;;;;;;;-1.41;60.97;102153.91;4958221;28;97559;-71
2022/01/28 09:01:05;;;;;;;1999.90;999.90;;;;;;;-1.39;60.31;102168.00;4954355;28;99624;-72
2022/01/28 09:03:33;;;;;;;1999.90;999.90;;;;;;;-1.37;60.96;102163.84;4961695;28;98277;-72
2022/01/28 09:06:01;;;;;;;1999.90;999.90;;;;;;;-1.35;60.18;102168.44;4960208;28;99638;-72
2022/01/28 09:08:29;;;;;;;1999.90;999.90;;;;;;;-1.35;60.05;102157.06;4942371;28;100567;-71
2022/01/28 09:11:00;;;;;;;1999.90;999.90;;;;;;;-1.34;59.95;102171.97;4963029;28;99618;-72
2022/01/28 09:13:37;;;;;;;1999.90;999.90;;;;;;;-1.35;59.99;102180.56;4967977;28;97040;-72
2022/01/28 09:16:06;;;;;;;1999.90;999.90;;;;;;;-1.37;59.48;102190.88;4969009;28;96964;-72
2022/01/28 09:18:34;;;;;;;1999.90;999.90;;;;;;;-1.33;59.84;102184.25;4967302;28;97833;-72
2022/01/28 09:21:02;;;;;;;1999.90;999.90;;;;;;;-1.33;60.00;102179.03;4968144;28;97566;-72
2022/01/28 09:23:30;;;;;;;1999.90;999.90;;;;;;;-1.29;59.65;102187.28;4939567;28;98869;-72
2022/01/28 09:25:58;;;;;;;1999.90;999.90;;;;;;;-1.25;59.93;102198.94;4948512;28;97720;-72
2022/01/28 09:28:26;;;;;;;1999.90;999.90;;;;;;;-1.30;58.73;102190.66;4958212;28;99907;-72
2022/01/28 09:30:54;;;;;;;1999.90;999.90;;;;;;;-1.22;59.28;102205.34;4965096;28;97150;-72
2022/01/28 09:33:24;;;;;;;1999.90;999.90;;;;;;;-1.17;59.64;102210.97;4967197;28;98364;-72
2022/01/28 09:35:54;;;;;;;1999.90;999.90;;;;;;;-1.15;58.78;102219.84;4958493;28;98231;-71
2022/01/28 09:38:22;;;;;;;1999.90;999.90;;;;;;;-1.21;58.33;102219.28;4966825;28;97755;-71
2022/01/28 09:40:50;;;;;;;1999.90;999.90;;;;;;;-1.14;58.85;102220.00;4968067;28;99005;-71
2022/01/28 09:43:19;;;;;;;1999.90;999.90;;;;;;;-1.16;58.46;102228.47;4968269;28;96938;-72
2022/01/28 09:45:47;;;;;;;1999.90;999.90;;;;;;;-1.13;58.79;102214.00;4966660;28;96922;-71
2022/01/28 09:48:18;;;;;;;1999.90;999.90;;;;;;;-1.07;59.41;102242.38;4968329;28;98205;-72
2022/01/28 09:50:47;;;;;;;1999.90;999.90;;;;;;;-1.02;58.56;102248.94;4968539;28;97578;-71
2022/01/28 09:53:17;;;;;;;1999.90;999.90;;;;;;;-0.99;59.11;102247.50;4968857;28;97637;-72
2022/01/28 09:55:47;;;;;;;1999.90;999.90;;;;;;;-0.94;58.79;102259.28;4940894;28;97285;-72
2022/01/28 09:58:16;;;;;;;1999.90;999.90;;;;;;;-0.89;58.25;102254.47;4958511;28;98927;-72
2022/01/28 10:00:44;;;;;;;1999.90;999.90;;;;;;;-0.85;58.88;102262.72;4962331;28;98997;-71
2022/01/28 10:03:13;;;;;;;1999.90;999.90;;;;;;;-0.89;57.64;102265.88;4962714;28;97720;-72
2022/01/28 10:05:43;;;;;;;1999.90;999.90;;;;;;;-0.84;58.27;102285.47;4963561;28;98824;-72
2022/01/28 10:08:14;;;;;;;1999.90;999.90;;;;;;;-0.87;57.89;102279.94;4959851;28;100353;-72
2022/01/28 10:10:50;;;;;;;1999.90;999.90;;;;;;;-0.79;58.50;102272.81;4960357;28;97082;-71
2022/01/28 10:13:23;;;;;;;1999.90;999.90;;;;;;;-0.75;58.66;102271.38;4978650;28;100279;-71
2022/01/28 10:15:57;;;;;;;1999.90;999.90;;;;;;;-0.75;58.25;102261.84;4962323;28;97715;-71
2022/01/28 10:18:52;;;;;;;1999.90;999.90;;;;;;;-0.74;56.66;102304.59;4953441;28;100257;-72
2022/01/28 10:21:28;;;;;;;1999.90;999.90;;;;;;;-0.79;55.06;102280.66;4961416;28;98311;-71
2022/01/28 10:24:03;;;;;;;1999.90;999.90;;;;;;;-0.67;57.49;102288.69;4959805;28;97861;-71
2022/01/28 10:26:33;;;;;;;1999.90;999.90;;;;;;;-0.61;57.97;102290.13;4964690;28;96840;-72
2022/01/28 10:29:04;;;;;;;1999.90;999.90;;;;;;;-0.55;57.78;102289.78;4962286;28;99925;-72
2022/01/28 10:31:56;;;;;;;1999.90;999.90;;;;;;;-0.53;55.43;102304.81;4961509;28;96787;-72
2022/01/28 10:34:26;;;;;;;1999.90;999.90;;;;;;;-0.44;57.89;102304.72;4959865;28;97055;-72
2022/01/28 10:37:13;;;;;;;1999.90;999.90;;;;;;;-0.54;53.66;102310.84;4962883;28;96818;-73
2022/01/28 10:39:45;;;;;;;1999.90;999.90;;;;;;;-0.44;57.20;102315.19;4963799;28;99296;-72
2022/01/28 10:42:14;;;;;;;1999.90;999.90;;;;;;;-0.42;57.74;102309.31;4964378;28;99359;-72
2022/01/28 10:44:58;;;;;;;1999.90;999.90;;;;;;;-0.45;55.50;102314.28;4962858;28;96877;-72
2022/01/28 10:47:33;;;;;;;1999.90;999.90;;;;;;;-0.42;56.88;102313.63;4946333;28;97696;-72
2022/01/28 10:50:02;;;;;;;1999.90;999.90;;;;;;;-0.39;57.26;102316.53;4963425;28;98446;-72
2022/01/28 10:52:34;;;;;;;1999.90;999.90;;;;;;;-0.46;56.40;102316.72;4964735;28;97605;-72
2022/01/28 10:55:03;;;;;;;1999.90;999.90;;;;;;;-0.42;57.14;102314.53;4964324;28;96698;-70
2022/01/28 10:57:31;;;;;;;1999.90;999.90;;;;;;;-0.41;57.06;102313.75;4963013;28;97249;-71
2022/01/28 10:59:59;;;;;;;1999.90;999.90;;;;;;;-0.42;56.17;102325.00;4963995;28;99586;-72
2022/01/28 11:02:27;;;;;;;1999.90;999.90;;;;;;;-0.43;56.64;102325.78;4965729;28;97644;-72
2022/01/28 11:04:56;;;;;;;1999.90;999.90;;;;;;;-0.37;57.32;102315.88;4962364;28;99226;-71
2022/01/28 11:07:27;;;;;;;1999.90;999.90;;;;;;;-0.34;57.38;102303.09;4964932;28;97605;-71
2022/01/28 11:09:55;;;;;;;1999.90;999.90;;;;;;;-0.28;56.89;102307.94;4965979;28;100312;-71
2022/01/28 11:12:25;;;;;;;1999.90;999.90;;;;;;;-0.27;56.93;102307.16;4967974;28;97986;-72
2022/01/28 11:14:53;;;;;;;1999.90;999.90;;;;;;;-0.22;56.57;102296.31;4969736;28;97627;-71
2022/01/28 11:17:20;;;;;;;1999.90;999.90;;;;;;;-0.18;56.73;102302.72;4965515;28;98321;-71
2022/01/28 11:19:49;;;;;;;1999.90;999.90;;;;;;;-0.15;56.81;102295.13;4965239;28;97912;-71
2022/01/28 11:22:27;;;;;;;1999.90;999.90;;;;;;;-0.17;56.40;102297.63;4964658;28;100196;-71
2022/01/28 11:25:08;;;;;;;1999.90;999.90;;;;;;;-0.17;55.38;102297.63;4961530;28;97137;-71
2022/01/28 11:27:38;;;;;;;1999.90;999.90;;;;;;;-0.13;56.05;102319.72;4961117;28;97517;-71
2022/01/28 11:30:22;;;;;;;1999.90;999.90;;;;;;;-0.09;55.92;102295.69;4960317;28;100015;-71
2022/01/28 11:33:01;;;;;;;1999.90;999.90;;;;;;;-0.08;55.85;102303.66;4954334;28;98340;-71
2022/01/28 11:35:31;;;;;;;1999.90;999.90;;;;;;;-0.07;55.76;102307.22;4956429;28;97126;-71
2022/01/28 11:38:04;;;;;;;1999.90;999.90;;;;;;;-0.06;55.80;102304.72;4954893;28;98468;-72
2022/01/28 11:40:42;;;;;;;1999.90;999.90;;;;;;;-0.01;56.00;102310.38;4956618;28;97608;-72
2022/01/28 11:43:18;;;;;;;1999.90;999.90;;;;;;;0.02;56.08;102302.78;4956618;28;98170;-72
2022/01/28 11:45:46;;;;;;;1999.90;999.90;;;;;;;0.09;56.14;102321.75;4958629;28;97733;-71
2022/01/28 11:48:14;;;;;;;1999.90;999.90;;;;;;;0.13;55.99;102310.78;4960194;28;96816;-72
2022/01/28 11:50:51;;;;;;;1999.90;999.90;;;;;;;0.17;56.33;102320.72;4960854;28;99413;-71
2022/01/28 11:53:24;;;;;;;1999.90;999.90;;;;;;;0.20;55.90;102302.69;4961568;28;99149;-72